Time;durP1;ratioP1;P1;durP2;ratioP2;P2;SDS_P1;SDS_P2;PMS_P1;PMS_P2;Temp;Humidity;BMP_temperature;BMP_pressure;BME280_temperature;BME280_humidity;BME280_pressure;Samples;Min_cycle;Max_cycle;Signal;HPM_P1;HPM_P2
2022/02/04 00:06:41;;;;;;;13.13;7.45;;;;;;;-0.98;59.10;95906.28;5046905;28;20055;-76
2022/02/04 00:08:44;;;;;;;12.88;6.97;;;;;;;-1.00;59.21;95902.91;5049571;28;20056;-77
2022/02/04 00:22:39;;;;;;;12.50;6.93;;;;;;;-0.98;58.81;95918.63;5048112;28;20517;-77
2022/02/04 00:25:14;;;;;;;13.90;7.15;;;;;;;-0.93;58.46;95925.28;5047673;28;20024;-77
2022/02/04 00:27:40;;;;;;;12.35;6.97;;;;;;;-0.90;58.38;95922.47;5030794;28;20035;-76
2022/02/04 00:30:22;;;;;;;12.68;7.32;;;;;;;-1.03;58.43;95921.53;5048122;28;20025;-77
2022/02/04 00:32:49;;;;;;;13.52;7.60;;;;;;;-1.07;58.57;95920.03;5046931;28;20031;-77
2022/02/04 00:38:08;;;;;;;14.25;7.25;;;;;;;-1.02;58.17;95910.91;5047095;28;20040;-77
2022/02/04 00:40:38;;;;;;;12.80;6.28;;;;;;;-1.02;58.35;95913.56;5047310;28;20059;-76
2022/02/04 00:43:08;;;;;;;12.27;6.38;;;;;;;-1.03;58.60;95918.91;5046570;28;20079;-77
2022/02/04 00:45:42;;;;;;;10.88;5.93;;;;;;;-1.13;58.57;95916.81;5046057;28;20538;-78
2022/02/04 00:53:30;;;;;;;11.82;6.82;;;;;;;-1.13;58.30;95916.81;5047327;28;20051;-76
2022/02/04 00:56:22;;;;;;;14.50;7.18;;;;;;;-1.32;58.70;95914.44;5030534;28;20035;-79
2022/02/04 01:28:40;;;;;;;18.98;8.43;;;;;;;-1.55;59.78;95884.25;5049876;28;20120;-75
2022/02/04 01:31:06;;;;;;;18.00;9.07;;;;;;;-1.59;59.26;95880.09;5045533;28;20033;-76
2022/02/04 01:33:32;;;;;;;29.30;10.82;;;;;;;-1.55;59.25;95889.50;5028338;28;20494;-76
2022/02/04 01:35:57;;;;;;;22.85;10.30;;;;;;;-1.63;59.01;95885.53;5045077;28;20025;-76
2022/02/04 01:38:23;;;;;;;25.88;10.55;;;;;;;-1.66;59.02;95890.97;5044611;28;20510;-78
2022/02/04 01:40:49;;;;;;;23.92;10.38;;;;;;;-1.69;58.60;95892.94;5044844;28;20040;-75
2022/02/04 01:43:20;;;;;;;19.55;9.68;;;;;;;-1.90;59.12;95885.34;5044906;28;20028;-75
2022/02/04 01:45:46;;;;;;;16.85;8.68;;;;;;;-2.03;59.58;95886.06;5044412;28;20028;-75
2022/02/04 01:48:11;;;;;;;20.73;9.43;;;;;;;-1.98;60.08;95888.44;5045416;28;20039;-76
2022/02/04 01:50:37;;;;;;;22.02;9.82;;;;;;;-2.01;60.02;95896.50;5028160;28;20036;-77
2022/02/04 01:53:02;;;;;;;19.90;10.20;;;;;;;-2.01;60.17;95893.84;5044907;28;20492;-76
2022/02/04 01:55:28;;;;;;;17.35;7.82;;;;;;;-1.86;59.28;95902.66;5044613;28;20029;-76
2022/02/04 01:57:53;;;;;;;14.18;8.30;;;;;;;-1.92;59.24;95901.22;5045813;28;20033;-76
2022/02/04 02:00:19;;;;;;;15.52;8.02;;;;;;;-2.06;59.10;95893.31;5046327;28;20549;-76
2022/02/04 02:02:44;;;;;;;11.75;7.55;;;;;;;-2.39;60.28;95895.97;5027862;28;20423;-76
2022/02/04 02:05:10;;;;;;;11.90;7.35;;;;;;;-2.37;60.38;95894.06;5045005;28;20139;-75
2022/02/04 02:07:45;;;;;;;14.20;8.07;;;;;;;-2.37;60.27;95886.19;5044297;28;20017;-76
2022/02/04 02:10:14;;;;;;;13.13;6.78;;;;;;;-2.28;60.28;95897.13;5044866;28;20061;-76
2022/02/04 02:15:31;;;;;;;19.58;8.45;;;;;;;-2.27;60.12;95877.78;5030382;28;20058;-76
2022/02/04 02:42:59;;;;;;;41.42;12.98;;;;;;;-2.08;59.63;95877.59;5049341;28;20170;-76
2022/02/04 03:00:03;;;;;;;30.30;11.43;;;;;;;-2.24;60.49;95882.88;5049124;28;20407;-75
2022/02/04 03:02:29;;;;;;;30.52;10.65;;;;;;;-2.27;60.31;95883.03;5049559;28;20090;-76
2022/02/04 03:04:54;;;;;;;24.10;10.20;;;;;;;-2.32;61.11;95887.72;5049310;28;20021;-75
2022/02/04 03:07:19;;;;;;;20.35;9.48;;;;;;;-2.36;60.57;95884.41;5048969;28;20029;-76
2022/02/04 03:09:45;;;;;;;21.60;9.38;;;;;;;-2.30;60.11;95872.72;5049328;28;20091;-76
2022/02/04 03:12:10;;;;;;;19.92;8.38;;;;;;;-2.22;60.68;95873.13;5047275;28;20573;-77
2022/02/04 03:14:36;;;;;;;14.20;7.78;;;;;;;-2.25;60.87;95870.69;5049676;28;20565;-76
2022/02/04 03:17:03;;;;;;;17.58;8.15;;;;;;;-2.25;61.10;95870.69;5030755;28;20043;-76
2022/02/04 03:19:29;;;;;;;25.75;9.27;;;;;;;-2.26;61.14;95866.38;5049161;28;20563;-76
2022/02/04 03:21:55;;;;;;;15.18;8.23;;;;;;;-2.29;61.73;95870.00;5031019;28;20021;-76
2022/02/04 03:24:23;;;;;;;17.67;8.75;;;;;;;-2.27;60.96;95864.66;5048911;28;20058;-76
2022/02/04 03:26:56;;;;;;;20.55;9.15;;;;;;;-2.31;61.02;95866.63;5049040;28;20021;-77
2022/02/04 03:29:27;;;;;;;20.00;9.30;;;;;;;-2.42;61.99;95866.38;5047414;28;20029;-77
2022/02/04 03:31:57;;;;;;;21.90;10.25;;;;;;;-2.43;61.45;95867.28;5049194;28;20044;-76
2022/02/04 03:34:22;;;;;;;24.15;11.27;;;;;;;-2.50;61.98;95869.44;5048245;28;20487;-75
2022/02/04 03:36:48;;;;;;;22.85;10.48;;;;;;;-2.49;61.97;95868.50;5048958;28;20043;-76
2022/02/04 03:39:14;;;;;;;22.48;10.52;;;;;;;-2.52;61.82;95863.41;5047156;28;20024;-77
2022/02/04 03:41:40;;;;;;;23.42;12.20;;;;;;;-2.57;61.64;95865.44;5048056;28;20029;-76
2022/02/04 03:44:05;;;;;;;37.30;16.05;;;;;;;-2.58;61.65;95863.75;5048199;28;20388;-76
2022/02/04 03:46:31;;;;;;;40.13;15.73;;;;;;;-2.59;61.95;95859.41;5048028;28;20523;-76
2022/02/04 03:48:56;;;;;;;38.40;15.43;;;;;;;-2.64;61.43;95857.91;5047753;28;20033;-76
2022/02/04 03:51:22;;;;;;;45.85;19.27;;;;;;;-2.63;61.75;95856.13;5013626;28;20057;-76
2022/02/04 03:53:47;;;;;;;45.88;18.92;;;;;;;-2.68;61.89;95851.16;5031096;28;20029;-77
2022/02/04 03:56:13;;;;;;;35.88;15.70;;;;;;;-2.73;61.55;95850.53;5048009;28;20471;-77
2022/02/04 03:58:38;;;;;;;70.63;24.42;;;;;;;-2.78;62.05;95848.19;5047027;28;20494;-76
2022/02/04 04:01:04;;;;;;;51.30;20.38;;;;;;;-2.69;61.74;95849.44;5046741;28;20032;-76
2022/02/04 04:03:30;;;;;;;46.17;19.20;;;;;;;-2.78;61.91;95844.69;5046778;28;20103;-76
2022/02/04 04:05:55;;;;;;;39.85;16.30;;;;;;;-2.78;62.15;95842.06;5047099;28;20021;-77
2022/02/04 04:08:21;;;;;;;47.20;18.23;;;;;;;-2.84;62.52;95837.16;5047891;28;20048;-75
2022/02/04 04:10:46;;;;;;;34.25;15.15;;;;;;;-2.84;62.53;95845.03;5047184;28;20443;-78
2022/02/04 04:13:12;;;;;;;27.30;13.65;;;;;;;-2.87;62.60;95839.00;5046461;28;20029;-77
2022/02/04 04:15:38;;;;;;;30.70;13.57;;;;;;;-2.81;62.61;95836.97;5030257;28;20033;-77
2022/02/04 04:18:03;;;;;;;31.67;13.73;;;;;;;-2.99;62.47;95839.69;5046110;28;20033;-77
2022/02/04 04:20:29;;;;;;;26.13;12.25;;;;;;;-2.96;62.72;95841.28;5047981;28;20029;-77
2022/02/04 04:22:55;;;;;;;24.45;11.55;;;;;;;-3.01;62.37;95841.53;5030091;28;20518;-77
2022/02/04 04:25:21;;;;;;;24.40;11.77;;;;;;;-3.17;62.87;95842.38;5047737;28;20510;-77
2022/02/04 04:27:46;;;;;;;19.15;10.75;;;;;;;-3.19;62.97;95843.41;5047922;28;20033;-75
2022/02/04 04:30:14;;;;;;;15.57;9.65;;;;;;;-3.23;64.01;95842.72;5046341;28;20129;-77
2022/02/04 04:32:39;;;;;;;21.88;9.90;;;;;;;-3.26;63.84;95850.75;5047067;28;20057;-77
2022/02/04 04:35:05;;;;;;;18.90;9.45;;;;;;;-3.25;62.89;95845.41;5047508;28;20040;-74
2022/02/04 04:37:31;;;;;;;14.63;8.35;;;;;;;-3.36;63.42;95845.13;5046420;28;20108;-75
2022/02/04 04:42:46;;;;;;;15.90;9.18;;;;;;;-3.39;63.58;95848.78;5046205;28;20068;-75
2022/02/04 04:45:38;;;;;;;18.95;9.15;;;;;;;-3.39;64.09;95848.78;5047915;28;20602;-76
2022/02/04 05:31:17;;;;;;;21.50;11.30;;;;;;;-3.23;65.21;95871.56;5045003;28;20415;-77
2022/02/04 05:33:42;;;;;;;22.98;12.77;;;;;;;-3.19;65.34;95867.00;5046926;28;20506;-77
2022/02/04 05:36:09;;;;;;;26.33;11.95;;;;;;;-3.20;65.71;95868.78;5044533;28;20021;-77
2022/02/04 05:38:36;;;;;;;17.63;10.77;;;;;;;-3.11;64.94;95867.44;5012538;28;20033;-77
2022/02/04 05:41:02;;;;;;;18.10;9.85;;;;;;;-3.14;64.92;95875.47;5044947;28;20032;-79
2022/02/04 05:43:31;;;;;;;19.00;10.73;;;;;;;-3.14;64.37;95875.47;5045019;28;20449;-75
2022/02/04 05:46:02;;;;;;;17.40;9.27;;;;;;;-3.14;63.79;95868.44;5046294;28;20033;-77
2022/02/04 05:48:30;;;;;;;17.65;10.10;;;;;;;-3.16;63.37;95867.69;5045943;28;20100;-76
2022/02/04 05:53:26;;;;;;;18.08;9.63;;;;;;;-2.98;62.68;95863.22;5046109;28;20033;-77
2022/02/04 05:56:17;;;;;;;20.95;9.75;;;;;;;-3.03;62.82;95869.66;5044830;28;20539;-76
2022/02/04 06:02:21;;;;;;;18.25;10.23;;;;;;;-3.35;64.35;95866.03;5044542;28;20499;-77
2022/02/04 06:14:45;;;;;;;21.80;10.07;;;;;;;-3.32;64.51;95879.94;5045717;28;20045;-77
2022/02/04 06:22:41;;;;;;;17.58;9.25;;;;;;;-3.18;63.92;95890.53;5045491;28;20036;-75
2022/02/04 06:25:08;;;;;;;16.92;10.30;;;;;;;-3.27;64.16;95888.38;5028184;28;20017;-76
2022/02/04 06:27:33;;;;;;;19.13;10.55;;;;;;;-3.32;64.17;95896.50;5044165;28;20028;-77
2022/02/04 06:29:59;;;;;;;16.92;10.18;;;;;;;-3.19;64.04;95891.44;5044309;28;20025;-78
2022/02/04 06:32:24;;;;;;;18.42;9.85;;;;;;;-3.18;64.04;95895.78;5044362;28;20025;-75
2022/02/04 06:34:51;;;;;;;21.95;10.77;;;;;;;-3.20;64.79;95905.50;5011423;28;20864;-76
2022/02/04 06:37:17;;;;;;;22.58;10.68;;;;;;;-3.22;64.37;95902.13;5044350;28;20559;-77
2022/02/04 06:39:42;;;;;;;17.83;10.32;;;;;;;-3.12;64.35;95907.72;5044255;28;20033;-76
2022/02/04 06:42:07;;;;;;;23.17;10.60;;;;;;;-3.24;64.80;95904.81;5028014;28;20034;-78
2022/02/04 06:44:34;;;;;;;17.92;9.70;;;;;;;-3.14;64.41;95912.19;5045322;28;20396;-76
2022/02/04 06:47:00;;;;;;;21.95;11.05;;;;;;;-2.98;63.02;95907.00;5045785;28;20048;-77
2022/02/04 06:49:25;;;;;;;21.35;11.45;;;;;;;-3.03;63.74;95911.66;5026970;28;20036;-77
2022/02/04 06:51:50;;;;;;;20.58;10.80;;;;;;;-3.10;63.77;95900.63;5044487;28;20033;-76
2022/02/04 06:54:16;;;;;;;19.52;11.13;;;;;;;-3.20;63.94;95905.50;5045407;28;20033;-76
2022/02/04 06:56:42;;;;;;;23.40;11.73;;;;;;;-3.15;64.73;95907.91;5044066;28;20025;-76
2022/02/04 06:59:07;;;;;;;17.98;10.57;;;;;;;-3.10;64.52;95905.88;5027652;28;20124;-77
2022/02/04 07:01:33;;;;;;;21.85;12.02;;;;;;;-2.96;64.93;95914.78;5043891;28;20495;-77
2022/02/04 07:04:03;;;;;;;30.25;13.70;;;;;;;-2.86;64.29;95916.84;5028150;28;20055;-77
2022/02/04 07:06:31;;;;;;;24.33;12.65;;;;;;;-2.77;62.47;95917.28;5044885;28;20032;-76
2022/02/04 07:16:40;;;;;;;27.23;14.85;;;;;;;-2.34;62.16;95914.09;5044959;28;20053;-77
2022/02/04 07:21:49;;;;;;;32.58;16.38;;;;;;;-1.94;60.69;95899.63;5049214;28;20067;-77
2022/02/04 07:24:15;;;;;;;28.90;16.27;;;;;;;-1.75;59.90;95908.16;5047135;28;20025;-76
2022/02/04 07:26:40;;;;;;;30.23;15.88;;;;;;;-1.51;59.92;95912.91;5030842;28;20060;-76
2022/02/04 07:29:06;;;;;;;36.05;16.90;;;;;;;-1.23;58.65;95915.69;5048984;28;20017;-76
2022/02/04 07:31:35;;;;;;;29.92;15.45;;;;;;;-0.99;58.15;95909.88;5047100;28;20415;-76
2022/02/04 07:34:15;;;;;;;24.98;14.65;;;;;;;-0.83;56.91;95914.19;5048053;28;20052;-77
2022/02/04 07:41:59;;;;;;;26.00;14.50;;;;;;;-0.16;55.36;95910.06;5047492;28;20032;-77
2022/02/04 07:44:25;;;;;;;27.60;16.02;;;;;;;-0.15;55.79;95906.47;5048360;28;20044;-77
2022/02/04 07:46:51;;;;;;;31.20;15.50;;;;;;;0.17;55.59;95910.59;5047827;28;20033;-77
2022/02/04 07:49:16;;;;;;;26.73;15.45;;;;;;;0.46;54.86;95915.72;5048178;28;20036;-76
2022/02/04 07:51:41;;;;;;;33.20;17.63;;;;;;;0.62;54.45;95907.63;5030836;28;20044;-76
2022/02/04 07:54:07;;;;;;;33.13;17.88;;;;;;;0.58;53.98;95914.91;5046693;28;20033;-76
2022/02/04 07:56:33;;;;;;;31.45;16.60;;;;;;;0.52;54.39;95914.47;5030456;28;20310;-77
2022/02/04 07:59:01;;;;;;;35.90;19.92;;;;;;;0.55;54.34;95915.09;5048461;28;20031;-76
2022/02/04 08:01:30;;;;;;;38.72;21.65;;;;;;;0.65;54.39;95910.06;5047879;28;20028;-77
2022/02/04 08:04:06;;;;;;;43.72;23.50;;;;;;;0.67;54.31;95910.81;5031030;28;20033;-78
2022/02/04 08:06:36;;;;;;;39.67;21.63;;;;;;;0.60;54.40;95904.22;5046370;28;20059;-75
2022/02/04 08:09:15;;;;;;;44.47;24.20;;;;;;;0.65;54.57;95904.78;5031462;28;20048;-76
2022/02/04 08:31:42;;;;;;;41.30;23.52;;;;;;;0.83;55.41;95904.47;5046268;28;20025;-76
2022/02/04 08:46:26;;;;;;;36.25;19.90;;;;;;;1.13;53.76;95891.91;5047935;28;20033;-79
2022/02/04 08:47:54;;;;;;;38.88;21.08;;;;;;;1.54;53.00;95893.44;5046494;28;20444;-76
2022/02/04 08:52:47;;;;;;;39.55;22.05;;;;;;;1.80;52.66;95892.50;5046110;28;20057;-76
2022/02/04 08:55:21;;;;;;;30.02;18.00;;;;;;;1.84;52.59;95894.81;5045894;28;20032;-77
2022/02/04 08:58:02;;;;;;;33.80;18.33;;;;;;;1.82;52.53;95893.25;5045260;28;20129;-79
2022/02/04 09:00:30;;;;;;;27.20;16.50;;;;;;;1.87;53.45;95891.09;5046330;28;20039;-77
2022/02/04 09:03:03;;;;;;;40.85;18.35;;;;;;;1.90;52.65;95887.38;5045396;28;20036;-79
2022/02/04 09:05:39;;;;;;;37.65;17.00;;;;;;;2.03;52.01;95885.53;5045954;28;20039;-78
2022/02/04 09:10:35;;;;;;;26.08;14.10;;;;;;;2.28;50.40;95883.72;5029645;28;20032;-77
2022/02/04 09:23:23;;;;;;;39.88;22.08;;;;;;;2.47;50.47;95869.94;5045619;28;20036;-76
2022/02/04 09:25:48;;;;;;;25.98;13.13;;;;;;;2.59;50.02;95869.97;5046616;28;20103;-76
2022/02/04 09:28:14;;;;;;;22.08;12.18;;;;;;;2.67;50.14;95867.59;5044961;28;20040;-75
2022/02/04 09:30:39;;;;;;;26.20;13.38;;;;;;;2.83;50.15;95859.31;5047097;28;20025;-76
2022/02/04 09:33:05;;;;;;;25.60;13.20;;;;;;;2.96;49.03;95855.72;5044703;28;20021;-78
2022/02/04 09:35:31;;;;;;;21.10;12.55;;;;;;;2.94;49.72;95852.31;5046894;28;20537;-76
2022/02/04 09:37:56;;;;;;;22.02;12.70;;;;;;;2.99;49.88;95858.13;5046112;28;20020;-78
2022/02/04 09:40:22;;;;;;;20.30;12.52;;;;;;;3.01;49.62;95855.34;5045956;28;20044;-77
2022/02/04 09:42:48;;;;;;;21.02;11.82;;;;;;;3.09;48.81;95852.94;5044657;28;20033;-77
2022/02/04 09:45:15;;;;;;;22.23;12.10;;;;;;;3.06;48.71;95861.13;5046098;28;20033;-77
2022/02/04 09:47:43;;;;;;;25.33;12.63;;;;;;;3.12;48.52;95859.81;5045154;28;20040;-77
2022/02/04 09:50:13;;;;;;;25.30;12.48;;;;;;;2.98;49.16;95859.09;5044265;28;20060;-77
2022/02/04 10:19:35;;;;;;;27.05;16.33;;;;;;;3.34;48.93;95817.38;5030867;28;20067;-76
2022/02/04 10:22:01;;;;;;;34.13;16.25;;;;;;;3.29;48.33;95814.25;5044436;28;20112;-77
2022/02/04 10:24:27;;;;;;;31.00;16.38;;;;;;;3.28;48.79;95807.28;5044491;28;20071;-77
2022/02/04 10:27:09;;;;;;;31.67;17.02;;;;;;;3.31;48.80;95796.41;5046739;28;20049;-77
2022/02/04 10:29:34;;;;;;;33.45;17.38;;;;;;;3.24;49.09;95797.84;5045501;28;20021;-78
2022/02/04 10:32:00;;;;;;;37.00;19.25;;;;;;;3.32;50.05;95798.09;5028101;28;20032;-76
2022/02/04 10:34:28;;;;;;;35.83;18.05;;;;;;;3.36;48.90;95788.09;5044252;28;20099;-76
2022/02/04 10:39:29;;;;;;;35.70;19.20;;;;;;;3.29;49.34;95787.75;5027913;28;20486;-76
2022/02/04 10:48:07;;;;;;;31.10;18.65;;;;;;;3.40;50.47;95768.31;5044231;28;20029;-78
2022/02/04 11:04:24;;;;;;;29.25;16.75;;;;;;;3.99;49.58;95756.53;5047742;28;20427;-76
2022/02/04 11:07:16;;;;;;;26.05;14.93;;;;;;;4.07;49.95;95762.06;5033316;28;20345;-76
2022/02/04 11:31:30;;;;;;;28.38;15.48;;;;;;;3.85;49.22;95739.97;5047674;28;20047;-76
2022/02/04 11:34:15;;;;;;;29.35;14.27;;;;;;;3.80;50.38;95735.03;5048716;28;20082;-78
2022/02/04 11:43:42;;;;;;;24.70;14.25;;;;;;;3.89;50.05;95741.38;5047922;28;20029;-77
2022/02/04 11:51:32;;;;;;;27.35;11.48;;;;;;;4.11;47.02;95722.81;5048276;28;20462;-76
2022/02/04 11:57:03;;;;;;;19.60;10.23;;;;;;;4.09;46.72;95717.66;5048238;28;20045;-77
2022/02/04 11:59:43;;;;;;;18.55;10.25;;;;;;;4.20;47.57;95712.28;5047739;28;20471;-78
2022/02/04 12:02:24;;;;;;;15.55;8.95;;;;;;;4.38;47.39;95708.16;5047517;28;20079;-76
2022/02/04 12:05:16;;;;;;;14.25;8.05;;;;;;;4.50;45.72;95696.47;5047474;28;20064;-77
2022/02/04 12:07:52;;;;;;;19.73;8.98;;;;;;;4.72;44.77;95699.94;5046604;28;20038;-77
2022/02/04 12:10:25;;;;;;;8.45;5.50;;;;;;;4.94;43.91;95703.38;5031015;28;20082;-78
2022/02/04 12:12:59;;;;;;;;;;;;;;;5.07;43.58;95692.47;5046880;28;20068;-77
2022/02/04 12:15:37;;;;;;;9.60;6.22;;;;;;;5.10;43.40;95702.00;5048503;28;19913;-75
2022/02/04 12:18:06;;;;;;;11.95;6.40;;;;;;;4.81;44.16;95700.94;5047593;28;20032;-78
2022/02/04 12:23:31;;;;;;;10.73;6.90;;;;;;;4.98;44.08;95682.69;5048026;28;20044;-76
2022/02/04 12:26:01;;;;;;;10.30;6.40;;;;;;;4.91;44.25;95674.41;5047533;28;20048;-79
2022/02/04 12:28:44;;;;;;;16.40;7.93;;;;;;;4.94;44.62;95680.28;5046931;28;20072;-78
2022/02/04 12:31:11;;;;;;;12.18;6.97;;;;;;;4.82;43.24;95668.09;5047346;28;20505;-77
2022/02/04 12:33:55;;;;;;;14.90;7.45;;;;;;;4.74;43.93;95671.41;5047341;28;20490;-77
2022/02/04 12:36:22;;;;;;;18.33;8.27;;;;;;;4.90;44.04;95662.91;5046473;28;20025;-77
2022/02/04 12:38:48;;;;;;;12.15;7.50;;;;;;;5.10;43.86;95670.09;5046871;28;20029;-76
2022/02/04 12:41:27;;;;;;;15.27;8.05;;;;;;;5.15;43.47;95659.91;5013370;28;20032;-76
2022/02/04 12:43:54;;;;;;;14.43;6.93;;;;;;;5.07;43.66;95656.13;5045362;28;20053;-81
2022/02/04 12:46:20;;;;;;;13.63;7.28;;;;;;;5.15;43.40;95670.53;5046279;28;20392;-78
2022/02/04 12:49:05;;;;;;;11.07;6.65;;;;;;;5.19;43.95;95679.94;5045565;28;20503;-77
2022/02/04 12:51:39;;;;;;;11.27;6.40;;;;;;;5.28;42.89;95681.75;5013778;28;20036;-79
2022/02/04 12:54:04;;;;;;;10.43;6.95;;;;;;;5.49;42.95;95678.13;5046080;28;20036;-77
2022/02/04 12:56:37;;;;;;;13.05;8.00;;;;;;;5.57;42.39;95670.31;5047123;28;20029;-77
2022/02/04 13:02:19;;;;;;;13.48;7.40;;;;;;;5.55;41.94;95661.59;5045773;28;20503;-79
2022/02/04 13:07:44;;;;;;;13.30;6.95;;;;;;;5.38;40.64;95647.19;5046280;28;20127;-75
2022/02/04 13:10:19;;;;;;;9.68;6.95;;;;;;;5.51;42.06;95636.28;5045714;28;20095;-77
2022/02/04 13:13:11;;;;;;;12.50;6.47;;;;;;;5.58;42.97;95647.16;5045344;28;20538;-76
2022/02/04 13:15:38;;;;;;;11.65;6.93;;;;;;;5.68;41.86;95636.53;5043524;28;20116;-78
2022/02/04 13:18:07;;;;;;;10.98;6.82;;;;;;;5.75;42.82;95639.47;5044877;28;20044;-77
2022/02/04 13:20:32;;;;;;;13.40;7.50;;;;;;;5.90;41.01;95635.38;5045885;28;20028;-76
2022/02/04 13:22:59;;;;;;;12.13;7.43;;;;;;;5.94;41.67;95622.63;5011946;28;20384;-77
2022/02/04 13:25:35;;;;;;;13.50;7.82;;;;;;;5.98;42.99;95617.88;5045563;28;20060;-76
2022/02/04 13:28:12;;;;;;;10.23;7.15;;;;;;;5.92;40.57;95628.09;5045203;28;20483;-76
2022/02/04 13:30:40;;;;;;;17.85;7.60;;;;;;;5.90;40.80;95613.25;5045121;28;20047;-76
2022/02/04 13:33:24;;;;;;;12.80;7.35;;;;;;;6.06;41.83;95608.19;5046791;28;20078;-77
2022/02/04 13:35:59;;;;;;;11.73;7.80;;;;;;;6.18;40.87;95602.69;5044767;28;20060;-75
2022/02/04 13:38:44;;;;;;;11.98;6.82;;;;;;;6.21;42.38;95615.72;5030014;28;20025;-79
2022/02/04 13:42:04;;;;;;;12.50;6.82;;;;;;;6.23;42.16;95613.75;5031296;28;20450;-78
2022/02/04 13:46:51;;;;;;;12.80;7.40;;;;;;;6.18;39.64;95616.00;5045299;28;20455;-76
2022/02/04 13:54:34;;;;;;;12.32;8.70;;;;;;;5.98;40.57;95605.38;5045459;28;20040;-75
2022/02/04 13:57:29;;;;;;;14.43;8.88;;;;;;;5.94;41.02;95604.00;5044383;28;20025;-75
2022/02/04 14:03:07;;;;;;;21.20;11.77;;;;;;;5.84;42.50;95619.97;5031721;28;20051;-76
2022/02/04 14:05:40;;;;;;;19.33;10.73;;;;;;;5.75;42.17;95626.16;5044839;28;20044;-77
2022/02/04 14:08:13;;;;;;;13.20;8.88;;;;;;;5.75;41.87;95626.16;5044877;28;20029;-77
2022/02/04 14:10:53;;;;;;;19.30;9.60;;;;;;;5.70;41.86;95618.59;5044525;28;20498;-76
2022/02/04 14:13:21;;;;;;;13.45;8.07;;;;;;;5.66;42.32;95622.50;5044290;28;20132;-77
2022/02/04 14:15:54;;;;;;;15.38;9.15;;;;;;;5.60;42.25;95628.41;5046100;28;20025;-77
2022/02/04 14:18:20;;;;;;;15.95;9.68;;;;;;;5.48;42.44;95625.06;5028252;28;20033;-77
2022/02/04 14:20:46;;;;;;;20.58;9.65;;;;;;;5.40;43.09;95615.94;5046257;28;20020;-76
2022/02/04 14:23:11;;;;;;;19.02;9.45;;;;;;;5.38;42.72;95625.06;5044020;28;20032;-77
2022/02/04 14:26:08;;;;;;;17.10;9.10;;;;;;;5.29;42.97;95622.25;5028218;28;20037;-76
2022/02/04 14:31:09;;;;;;;16.52;9.80;;;;;;;5.20;43.85;95612.47;5032179;28;20028;-77
2022/02/04 14:50:23;;;;;;;17.02;10.85;;;;;;;4.81;46.31;95598.16;5049665;28;20051;-75
2022/02/04 14:53:04;;;;;;;22.95;11.60;;;;;;;4.75;47.61;95590.72;5034466;28;20103;-76
2022/02/04 15:01:25;;;;;;;;;;;;;;;4.58;47.14;95597.50;5004767;28;20620;-77
2022/02/04 15:04:13;;;;;;;25.48;11.05;;;;;;;4.47;46.25;95584.34;5027406;28;19913;-78
2022/02/04 15:06:40;;;;;;;29.85;11.10;;;;;;;4.45;46.57;95593.28;5034130;28;20055;-77
2022/02/04 15:09:08;;;;;;;26.13;11.30;;;;;;;4.41;46.36;95588.38;5048222;28;20020;-77
2022/02/04 15:11:36;;;;;;;27.58;11.48;;;;;;;4.39;45.90;95593.84;5031045;28;20416;-76
2022/02/04 15:14:03;;;;;;;31.45;11.65;;;;;;;4.31;46.25;95593.66;5014798;28;20040;-77
2022/02/04 15:16:28;;;;;;;23.77;10.85;;;;;;;4.31;45.64;95597.16;5031457;28;20127;-76
2022/02/04 15:18:54;;;;;;;31.30;11.07;;;;;;;4.26;46.21;95601.19;5030999;28;20037;-77
2022/02/04 15:21:21;;;;;;;29.90;11.15;;;;;;;4.17;47.05;95594.88;5048048;28;20048;-79
2022/02/04 15:23:49;;;;;;;32.90;11.45;;;;;;;4.07;47.08;95590.38;5031197;28;20025;-76
2022/02/04 15:26:21;;;;;;;36.88;12.88;;;;;;;3.87;47.45;95588.59;5032047;28;20399;-76
2022/02/04 15:28:58;;;;;;;30.05;11.73;;;;;;;3.80;47.86;95589.13;5015260;28;20415;-76
2022/02/04 15:31:32;;;;;;;34.80;13.73;;;;;;;3.75;48.06;95587.81;5047275;28;20059;-76
2022/02/04 15:33:59;;;;;;;34.17;11.90;;;;;;;3.90;47.92;95590.97;5047859;28;20552;-76
2022/02/04 15:36:30;;;;;;;25.92;11.32;;;;;;;3.99;47.30;95589.31;5046857;28;20556;-77
2022/02/04 15:38:56;;;;;;;22.48;11.63;;;;;;;3.94;46.74;95584.41;5030759;28;20530;-76
2022/02/04 15:41:24;;;;;;;30.73;14.35;;;;;;;3.82;47.35;95584.50;5046702;28;20077;-76
2022/02/04 15:43:53;;;;;;;31.83;14.93;;;;;;;3.62;48.30;95582.69;5030858;28;20044;-77
2022/02/04 15:51:41;;;;;;;36.20;17.17;;;;;;;3.36;49.49;95583.94;5033339;28;20067;-77
2022/02/04 15:56:51;;;;;;;41.47;19.77;;;;;;;3.37;49.25;95577.66;5047024;28;20037;-77
2022/02/04 16:06:44;;;;;;;59.47;26.98;;;;;;;3.24;50.43;95587.63;5029998;28;20033;-75
2022/02/04 16:09:09;;;;;;;65.30;27.80;;;;;;;3.08;51.02;95580.91;5047173;28;20024;-75
2022/02/04 16:14:12;;;;;;;51.80;27.48;;;;;;;3.15;51.91;95589.19;5047142;28;20025;-77
2022/02/04 16:16:42;;;;;;;60.33;29.02;;;;;;;3.11;52.53;95586.00;5046771;28;20040;-77
2022/02/04 16:19:17;;;;;;;56.85;27.90;;;;;;;3.15;52.10;95583.91;5053046;28;20105;-80
2022/02/04 16:22:03;;;;;;;57.30;28.88;;;;;;;3.29;51.28;95594.19;5051322;28;20033;-77
2022/02/04 16:29:38;;;;;;;56.85;29.25;;;;;;;3.31;51.33;95589.63;5047900;28;20087;-77
2022/02/04 16:32:03;;;;;;;65.78;31.58;;;;;;;3.19;52.18;95585.34;5046165;28;20056;-77
2022/02/04 16:34:29;;;;;;;59.30;31.92;;;;;;;3.20;51.95;95593.16;5048081;28;20086;-78
2022/02/04 16:36:56;;;;;;;71.30;31.17;;;;;;;3.16;51.97;95590.91;5047175;28;20017;-78
2022/02/04 16:39:23;;;;;;;57.40;31.05;;;;;;;3.21;52.07;95594.84;5046512;28;20522;-78
2022/02/04 16:42:01;;;;;;;57.08;31.38;;;;;;;3.22;52.00;95593.03;5047090;28;20025;-77
2022/02/04 16:44:27;;;;;;;64.93;32.92;;;;;;;3.01;52.58;95585.91;5046330;28;20031;-77
2022/02/04 16:46:52;;;;;;;61.33;32.35;;;;;;;3.00;53.07;95593.97;5047232;28;20028;-77
2022/02/04 16:49:18;;;;;;;59.50;31.45;;;;;;;2.97;53.01;95581.81;5045766;28;20404;-77
2022/02/04 16:51:43;;;;;;;57.42;30.60;;;;;;;3.01;52.90;95591.19;5046290;28;20486;-78
2022/02/04 16:54:09;;;;;;;65.88;33.95;;;;;;;2.97;53.09;95592.41;5029229;28;20021;-78
2022/02/04 16:56:34;;;;;;;68.95;34.35;;;;;;;2.88;53.32;95587.84;5029880;28;20100;-78
2022/02/04 16:59:00;;;;;;;74.30;33.67;;;;;;;2.81;53.97;95593.66;5045392;28;20098;-77
2022/02/04 17:01:27;;;;;;;70.75;36.10;;;;;;;2.70;54.27;95597.19;5046030;28;20060;-77
2022/02/04 17:03:52;;;;;;;77.15;37.28;;;;;;;2.59;54.69;95595.41;5028928;28;20498;-79
2022/02/04 17:06:19;;;;;;;143.88;51.83;;;;;;;2.55;54.01;95601.91;5047062;28;20033;-76
2022/02/04 17:08:51;;;;;;;116.22;47.53;;;;;;;2.58;54.29;95604.31;5047150;28;20040;-76
2022/02/04 17:11:21;;;;;;;76.57;37.85;;;;;;;2.42;54.50;95598.56;5045393;28;20490;-77
2022/02/04 17:13:46;;;;;;;70.90;33.97;;;;;;;2.44;54.26;95604.56;5046993;28;20049;-76
2022/02/04 17:16:12;;;;;;;65.35;32.38;;;;;;;2.26;53.59;95613.00;5028752;28;20043;-77
2022/02/04 17:18:38;;;;;;;56.78;28.35;;;;;;;2.20;54.59;95605.53;5029111;28;20033;-76
2022/02/04 17:21:04;;;;;;;52.85;26.35;;;;;;;2.18;54.15;95605.66;5046362;28;20025;-77
2022/02/04 17:23:39;;;;;;;54.00;27.95;;;;;;;2.03;55.00;95605.06;5045492;28;20043;-77
2022/02/04 17:26:05;;;;;;;53.53;24.50;;;;;;;2.06;54.46;95610.09;5046742;28;20029;-76
2022/02/04 17:28:30;;;;;;;40.97;22.40;;;;;;;2.01;54.15;95620.22;5028558;28;20031;-77
2022/02/04 17:30:57;;;;;;;39.40;21.13;;;;;;;1.83;54.50;95612.75;5029031;28;20029;-76
2022/02/04 17:33:23;;;;;;;41.15;21.92;;;;;;;1.76;55.31;95608.88;5028733;28;20044;-78
2022/02/04 17:35:50;;;;;;;37.90;20.33;;;;;;;1.71;55.30;95617.16;5029115;28;20499;-76
2022/02/04 17:38:16;;;;;;;42.15;19.90;;;;;;;1.56;55.62;95621.84;5044730;28;20116;-78
2022/02/04 17:40:42;;;;;;;37.20;17.88;;;;;;;1.53;56.88;95619.41;5045225;28;20033;-77
2022/02/04 17:43:07;;;;;;;33.70;18.73;;;;;;;1.58;56.91;95622.53;5044872;28;20040;-77
2022/02/04 17:45:33;;;;;;;38.33;19.85;;;;;;;1.44;58.35;95626.25;5028411;28;20024;-77
2022/02/04 17:48:21;;;;;;;48.58;22.30;;;;;;;1.45;57.69;95627.91;5045283;28;20078;-75
2022/02/04 17:53:22;;;;;;;44.30;23.17;;;;;;;1.36;58.44;95628.63;5045136;28;20140;-76
2022/02/04 17:55:53;;;;;;;51.08;23.92;;;;;;;1.40;58.43;95634.53;5044651;28;20099;-77
2022/02/04 17:58:49;;;;;;;52.38;24.63;;;;;;;1.42;58.99;95627.34;5044520;28;20033;-75